Time;durP1;ratioP1;P1;durP2;ratioP2;P2;SDS_P1;SDS_P2;PMS_P1;PMS_P2;Temp;Humidity;BMP_temperature;BMP_pressure;BME280_temperature;BME280_humidity;BME280_pressure;Samples;Min_cycle;Max_cycle;Signal;HPM_P1;HPM_P2
2022/06/30 00:00:29;;;;;;;0.40;0.40;;;18.10;99.90;;;;;;5089917;28;20370;-67
2022/06/30 00:02:55;;;;;;;0.60;0.60;;;18.20;99.90;;;;;;5070634;28;20419;-68
2022/06/30 00:05:20;;;;;;;0.40;0.30;;;18.10;99.90;;;;;;5070089;28;20791;-67
2022/06/30 00:07:46;;;;;;;0.40;0.30;;;18.10;99.90;;;;;;5068656;28;20399;-67
2022/06/30 00:10:12;;;;;;;0.40;0.20;;;18.00;99.90;;;;;;5069866;28;20893;-67
2022/06/30 00:12:39;;;;;;;0.70;0.50;;;18.00;99.90;;;;;;5069127;28;20383;-67
2022/06/30 00:15:05;;;;;;;0.60;0.50;;;17.90;99.90;;;;;;5053547;28;20380;-67
2022/06/30 00:17:31;;;;;;;0.40;0.20;;;17.90;99.90;;;;;;5068674;28;20391;-67
2022/06/30 00:19:57;;;;;;;0.40;0.30;;;17.90;99.90;;;;;;5069198;28;20449;-67
2022/06/30 00:22:23;;;;;;;0.80;0.50;;;17.90;99.90;;;;;;5069602;28;20384;-67
2022/06/30 00:24:48;;;;;;;0.40;0.20;;;18.00;99.90;;;;;;5069081;28;20379;-67
2022/06/30 00:27:15;;;;;;;0.50;0.50;;;18.00;99.90;;;;;;5068161;28;20410;-67
2022/06/30 00:29:41;;;;;;;0.40;0.30;;;18.00;99.90;;;;;;5068337;28;20395;-67
2022/06/30 00:32:07;;;;;;;0.40;0.30;;;17.90;99.90;;;;;;5068349;28;20552;-68
2022/06/30 00:34:33;;;;;;;0.40;0.30;;;18.00;99.90;;;;;;5068349;28;20490;-67
2022/06/30 00:37:00;;;;;;;2.00;0.80;;;18.00;99.90;;;;;;5069948;28;20479;-67
2022/06/30 00:39:26;;;;;;;0.40;0.20;;;18.10;99.90;;;;;;5069536;28;20424;-67
2022/06/30 00:41:52;;;;;;;1.00;1.00;;;18.00;99.90;;;;;;5068972;28;20914;-67
2022/06/30 00:44:19;;;;;;;0.40;0.30;;;18.00;99.90;;;;;;5068654;28;20488;-68
2022/06/30 00:46:45;;;;;;;0.60;0.60;;;18.00;99.90;;;;;;5067371;28;20649;-67
2022/06/30 00:49:10;;;;;;;0.40;0.20;;;18.00;99.90;;;;;;5069279;28;20384;-68
2022/06/30 00:51:36;;;;;;;0.40;0.20;;;17.90;99.90;;;;;;5067732;28;20848;-67
2022/06/30 00:54:04;;;;;;;0.40;0.23;;;17.90;99.90;;;;;;5049884;28;20392;-67
2022/06/30 00:56:32;;;;;;;0.40;0.30;;;17.90;99.90;;;;;;5048971;28;20780;-67
2022/06/30 00:59:02;;;;;;;0.40;0.30;;;17.80;99.90;;;;;;5049800;28;20719;-67
2022/06/30 01:01:30;;;;;;;0.40;0.28;;;17.80;99.90;;;;;;5049338;28;20374;-67
2022/06/30 01:03:56;;;;;;;0.40;0.30;;;17.80;99.90;;;;;;5067575;28;20387;-68
2022/06/30 01:06:22;;;;;;;0.40;0.20;;;17.70;99.90;;;;;;5069871;28;20384;-68
2022/06/30 01:08:49;;;;;;;0.40;0.20;;;17.70;99.90;;;;;;5067910;28;20895;-67
2022/06/30 01:14:01;;;;;;;0.40;0.40;;;17.70;99.90;;;;;;5060730;28;20901;-68
2022/06/30 01:16:27;;;;;;;0.40;0.30;;;17.60;99.90;;;;;;5068518;28;20487;-68
2022/06/30 01:18:52;;;;;;;0.43;0.32;;;17.50;99.90;;;;;;5067897;28;20474;-67
2022/06/30 01:21:18;;;;;;;0.40;0.30;;;17.50;99.90;;;;;;5069470;28;20384;-67
2022/06/30 01:23:44;;;;;;;0.40;0.20;;;17.50;99.90;;;;;;5068290;28;20391;-69
2022/06/30 01:26:10;;;;;;;0.40;0.25;;;17.40;99.90;;;;;;5068461;28;20821;-68
2022/06/30 01:28:36;;;;;;;0.40;0.28;;;17.40;99.90;;;;;;5068070;28;20457;-67
2022/06/30 01:31:02;;;;;;;0.40;0.40;;;17.40;99.90;;;;;;5069040;28;20418;-68
2022/06/30 01:33:28;;;;;;;0.40;0.20;;;17.30;99.90;;;;;;5068035;28;20432;-67
2022/06/30 01:35:56;;;;;;;0.40;0.20;;;17.30;99.90;;;;;;5068593;28;20432;-68
2022/06/30 01:38:22;;;;;;;0.40;0.20;;;17.30;99.90;;;;;;5070810;28;20532;-67
2022/06/30 01:40:48;;;;;;;0.40;0.25;;;17.30;99.90;;;;;;5071503;28;20392;-67
2022/06/30 01:43:15;;;;;;;0.40;0.20;;;17.30;99.90;;;;;;5072501;28;20396;-67
2022/06/30 01:45:42;;;;;;;0.40;0.20;;;17.40;99.90;;;;;;5071479;28;20538;-67
2022/06/30 01:48:08;;;;;;;0.40;0.20;;;17.40;99.90;;;;;;5072249;28;20408;-68
2022/06/30 01:50:34;;;;;;;0.40;0.20;;;17.40;99.90;;;;;;5071536;28;20825;-67
2022/06/30 01:53:01;;;;;;;0.40;0.20;;;17.30;99.90;;;;;;5072014;28;20795;-67
2022/06/30 01:55:27;;;;;;;0.40;0.20;;;17.30;99.90;;;;;;5072168;28;20387;-67
2022/06/30 01:57:53;;;;;;;0.40;0.20;;;17.30;99.90;;;;;;5071082;28;20478;-68
2022/06/30 02:00:21;;;;;;;0.40;0.40;;;17.30;99.90;;;;;;5071880;28;20457;-67
2022/06/30 02:02:48;;;;;;;0.40;0.30;;;17.30;99.90;;;;;;5070652;28;20395;-68
2022/06/30 02:05:17;;;;;;;0.40;0.20;;;17.30;99.90;;;;;;5070951;28;20412;-67
2022/06/30 02:07:43;;;;;;;0.80;0.80;;;17.30;99.90;;;;;;5070965;28;20411;-67
2022/06/30 02:10:17;;;;;;;0.40;0.20;;;17.20;99.90;;;;;;5071902;28;20396;-67
2022/06/30 02:13:01;;;;;;;0.40;0.20;;;17.20;99.90;;;;;;5071021;28;20445;-68
2022/06/30 02:15:32;;;;;;;0.40;0.30;;;17.10;99.90;;;;;;5060931;28;20463;-67
2022/06/30 02:17:59;;;;;;;0.40;0.30;;;17.10;99.90;;;;;;5071721;28;20438;-68
2022/06/30 02:20:25;;;;;;;0.40;0.20;;;17.20;99.90;;;;;;5071393;28;20392;-68
2022/06/30 02:22:56;;;;;;;0.40;0.20;;;17.30;99.90;;;;;;5070899;28;20411;-67
2022/06/30 02:25:24;;;;;;;0.70;0.70;;;17.30;99.90;;;;;;5071674;28;20924;-68
2022/06/30 02:27:50;;;;;;;0.40;0.30;;;17.20;99.90;;;;;;5070748;28;20921;-67
2022/06/30 02:30:16;;;;;;;0.40;0.30;;;17.10;99.90;;;;;;5070815;28;20399;-68
2022/06/30 02:32:42;;;;;;;0.40;0.20;;;17.00;99.90;;;;;;5069902;28;20884;-67
2022/06/30 02:35:08;;;;;;;0.40;0.30;;;17.00;99.90;;;;;;5071809;28;20407;-67
2022/06/30 02:37:34;;;;;;;0.40;0.40;;;16.90;99.90;;;;;;5070742;28;20392;-67
2022/06/30 02:40:00;;;;;;;0.50;0.50;;;16.90;99.90;;;;;;5071107;28;20392;-67
2022/06/30 02:42:26;;;;;;;0.40;0.20;;;17.00;99.90;;;;;;5071057;28;20414;-68
2022/06/30 02:44:51;;;;;;;1.10;1.00;;;16.90;99.90;;;;;;5070721;28;20841;-67
2022/06/30 02:47:17;;;;;;;0.40;0.30;;;17.00;99.90;;;;;;5070111;28;20408;-67
2022/06/30 02:49:42;;;;;;;0.40;0.20;;;17.00;99.90;;;;;;5069521;28;20404;-67
2022/06/30 02:52:08;;;;;;;0.40;0.30;;;17.00;99.90;;;;;;5071273;28;20425;-67
2022/06/30 02:54:34;;;;;;;0.40;0.20;;;16.90;99.90;;;;;;5069993;28;20392;-67
2022/06/30 02:57:00;;;;;;;0.40;0.30;;;16.90;99.90;;;;;;5071149;28;20453;-68
2022/06/30 02:59:25;;;;;;;1.00;0.80;;;16.80;99.90;;;;;;5070959;28;20383;-67
2022/06/30 03:01:51;;;;;;;0.50;0.50;;;16.80;99.90;;;;;;5070043;28;20525;-67
2022/06/30 03:04:18;;;;;;;0.40;0.30;;;16.90;99.90;;;;;;5071212;28;20533;-67
2022/06/30 03:06:43;;;;;;;0.40;0.30;;;16.90;99.90;;;;;;5069800;28;20482;-67
2022/06/30 03:09:09;;;;;;;0.40;0.20;;;16.90;99.90;;;;;;5070604;28;20491;-67
2022/06/30 03:11:35;;;;;;;0.40;0.30;;;16.80;99.90;;;;;;5070512;28;20376;-67
2022/06/30 03:14:00;;;;;;;0.40;0.30;;;16.70;99.90;;;;;;5070604;28;20859;-67
2022/06/30 03:16:26;;;;;;;0.50;0.50;;;16.60;99.90;;;;;;5070472;28;20462;-68
2022/06/30 03:18:53;;;;;;;0.40;0.40;;;16.60;99.90;;;;;;5069167;28;20468;-67
2022/06/30 03:21:20;;;;;;;0.40;0.30;;;16.50;99.90;;;;;;5070829;28;20380;-67
2022/06/30 03:23:46;;;;;;;0.40;0.30;;;16.60;99.90;;;;;;5069532;28;20549;-67
2022/06/30 03:26:12;;;;;;;0.40;0.20;;;16.50;99.90;;;;;;5058741;28;20395;-67
2022/06/30 03:28:38;;;;;;;0.40;0.20;;;16.50;99.90;;;;;;5069406;28;20419;-67
2022/06/30 03:31:04;;;;;;;0.40;0.20;;;16.50;99.90;;;;;;5070489;28;20453;-68
2022/06/30 03:33:29;;;;;;;0.40;0.20;;;16.60;99.90;;;;;;5070450;28;20738;-67
2022/06/30 03:35:56;;;;;;;0.40;0.22;;;16.60;99.90;;;;;;5070224;28;20470;-67
2022/06/30 03:38:22;;;;;;;0.40;0.20;;;16.60;99.90;;;;;;5070564;28;20400;-67
2022/06/30 03:40:48;;;;;;;0.40;0.30;;;16.50;99.90;;;;;;5069712;28;20522;-67
2022/06/30 03:43:14;;;;;;;0.40;0.30;;;16.50;99.90;;;;;;5070380;28;20395;-67
2022/06/30 03:45:39;;;;;;;1.20;1.10;;;16.50;99.90;;;;;;5069145;28;20462;-68
2022/06/30 03:48:06;;;;;;;0.40;0.30;;;16.60;99.90;;;;;;5070195;28;20404;-68
2022/06/30 03:50:33;;;;;;;0.40;0.20;;;16.50;99.90;;;;;;5069448;28;20764;-67
2022/06/30 03:52:59;;;;;;;0.40;0.20;;;16.40;99.90;;;;;;5083787;28;20493;-68
2022/06/30 03:55:26;;;;;;;0.40;0.20;;;16.30;99.90;;;;;;5075798;28;20383;-68
2022/06/30 03:57:51;;;;;;;0.40;0.30;;;16.30;99.90;;;;;;5070281;28;20836;-68
2022/06/30 04:00:17;;;;;;;0.40;0.30;;;16.30;99.90;;;;;;5069858;28;20401;-68
2022/06/30 04:02:43;;;;;;;0.40;0.20;;;16.30;99.90;;;;;;5069469;28;20574;-68
2022/06/30 04:05:09;;;;;;;0.50;0.50;;;16.40;99.90;;;;;;5056540;28;20397;-68
2022/06/30 04:07:42;;;;;;;0.40;0.30;;;16.40;99.90;;;;;;5049824;28;20454;-67
2022/06/30 04:10:09;;;;;;;0.40;0.30;;;16.30;99.90;;;;;;5050095;28;20870;-68
2022/06/30 04:12:35;;;;;;;0.40;0.20;;;16.30;99.90;;;;;;5049617;28;20385;-68
2022/06/30 04:15:01;;;;;;;0.40;0.28;;;16.30;99.90;;;;;;5050710;28;20382;-67
2022/06/30 04:17:26;;;;;;;0.40;0.20;;;16.30;99.90;;;;;;5050027;28;20898;-68
2022/06/30 04:19:52;;;;;;;0.40;0.20;;;16.30;99.90;;;;;;5049933;28;20377;-68
2022/06/30 04:22:18;;;;;;;0.40;0.20;;;16.30;99.90;;;;;;5050245;28;20432;-68
2022/06/30 04:24:44;;;;;;;0.40;0.40;;;16.20;99.90;;;;;;5060706;28;20388;-67
2022/06/30 04:27:09;;;;;;;0.40;0.20;;;16.20;99.90;;;;;;5070453;28;20410;-67
2022/06/30 04:29:35;;;;;;;0.40;0.20;;;16.30;99.90;;;;;;5051030;28;20399;-68
2022/06/30 04:34:45;;;;;;;0.40;0.20;;;16.40;99.90;;;;;;5068252;28;20419;-67
2022/06/30 04:37:10;;;;;;;0.40;0.20;;;16.60;99.90;;;;;;5070383;28;20379;-67
2022/06/30 04:39:36;;;;;;;0.40;0.20;;;16.50;99.90;;;;;;5062904;28;20396;-67
2022/06/30 04:42:02;;;;;;;0.40;0.30;;;16.50;99.90;;;;;;5050394;28;20385;-67
2022/06/30 04:44:28;;;;;;;0.40;0.20;;;16.60;99.90;;;;;;5053116;28;20384;-67
2022/06/30 04:46:53;;;;;;;0.40;0.20;;;16.60;99.90;;;;;;5069146;28;20818;-68
2022/06/30 04:49:19;;;;;;;0.40;0.20;;;16.60;99.90;;;;;;5069796;28;20400;-67
2022/06/30 04:51:45;;;;;;;0.40;0.20;;;16.70;99.90;;;;;;5064124;28;20441;-67
2022/06/30 04:54:10;;;;;;;0.40;0.30;;;16.90;99.90;;;;;;5062219;28;20381;-68
2022/06/30 04:56:36;;;;;;;0.40;0.30;;;16.90;99.90;;;;;;5060604;28;20542;-67
2022/06/30 04:59:02;;;;;;;0.40;0.20;;;16.80;99.90;;;;;;5067744;28;20383;-67
2022/06/30 05:01:27;;;;;;;0.40;0.30;;;16.90;99.90;;;;;;5068541;28;20434;-67
2022/06/30 05:03:53;;;;;;;0.40;0.40;;;16.90;99.90;;;;;;5059710;28;20978;-68
2022/06/30 05:06:18;;;;;;;0.40;0.20;;;17.00;99.90;;;;;;5058745;28;20748;-68
2022/06/30 05:08:44;;;;;;;0.40;0.30;;;17.10;99.90;;;;;;5068284;28;20565;-68
2022/06/30 05:11:10;;;;;;;0.50;0.50;;;17.10;99.90;;;;;;5054347;28;20390;-68
2022/06/30 05:13:35;;;;;;;0.40;0.30;;;17.10;99.90;;;;;;5068353;28;20873;-69
2022/06/30 05:16:02;;;;;;;0.40;0.20;;;17.20;99.90;;;;;;5062286;28;20389;-70
2022/06/30 05:18:28;;;;;;;0.90;0.70;;;17.20;99.90;;;;;;5069278;28;20383;-69
2022/06/30 05:20:54;;;;;;;0.40;0.38;;;17.40;99.90;;;;;;5067731;28;20395;-69
2022/06/30 05:23:20;;;;;;;0.55;0.55;;;17.40;99.90;;;;;;5063243;28;20396;-68
2022/06/30 05:28:30;;;;;;;0.40;0.28;;;17.60;99.90;;;;;;5066755;28;20411;-67
2022/06/30 05:30:56;;;;;;;0.40;0.20;;;17.70;99.90;;;;;;5072030;28;20395;-69
2022/06/30 05:33:22;;;;;;;0.40;0.30;;;17.70;99.90;;;;;;5072069;28;20883;-68
2022/06/30 05:35:51;;;;;;;0.40;0.30;;;17.70;99.90;;;;;;5071836;28;20384;-68
2022/06/30 05:38:17;;;;;;;1.00;1.00;;;17.80;99.90;;;;;;5073271;28;20399;-69
2022/06/30 05:40:45;;;;;;;0.40;0.30;;;17.80;99.90;;;;;;5071889;28;20421;-68
2022/06/30 05:43:13;;;;;;;0.50;0.40;;;17.90;99.90;;;;;;5072866;28;20388;-69
2022/06/30 05:45:42;;;;;;;0.40;0.30;;;18.00;99.90;;;;;;5071927;28;20864;-69
2022/06/30 05:48:08;;;;;;;0.40;0.30;;;18.10;99.90;;;;;;5072645;28;20412;-69
2022/06/30 05:50:34;;;;;;;0.40;0.40;;;18.10;99.90;;;;;;5072369;28;20368;-69
2022/06/30 05:53:00;;;;;;;0.40;0.30;;;18.20;99.90;;;;;;5072527;28;20384;-69
2022/06/30 05:55:27;;;;;;;0.40;0.40;;;18.20;99.90;;;;;;5072487;28;20382;-68
2022/06/30 05:57:56;;;;;;;0.40;0.22;;;18.30;99.90;;;;;;5072279;28;20384;-71
2022/06/30 06:00:25;;;;;;;0.40;0.20;;;18.40;99.90;;;;;;5071721;28;20403;-69
2022/06/30 06:02:51;;;;;;;0.40;0.30;;;18.50;99.90;;;;;;5071625;28;20439;-68
2022/06/30 06:05:17;;;;;;;0.40;0.30;;;18.60;99.90;;;;;;5072707;28;20427;-68
2022/06/30 06:07:42;;;;;;;0.40;0.30;;;18.70;99.90;;;;;;5071263;28;20831;-68
2022/06/30 06:10:09;;;;;;;0.40;0.20;;;18.80;99.90;;;;;;5072126;28;20466;-69
2022/06/30 06:12:35;;;;;;;0.40;0.40;;;18.90;99.90;;;;;;5071442;28;20380;-67
2022/06/30 06:15:01;;;;;;;0.40;0.30;;;18.90;99.90;;;;;;5072535;28;20376;-67
2022/06/30 06:17:29;;;;;;;0.50;0.50;;;18.90;99.90;;;;;;5071687;28;20448;-67
2022/06/30 06:19:55;;;;;;;0.40;0.30;;;19.00;99.90;;;;;;5072226;28;20375;-69
2022/06/30 06:22:21;;;;;;;0.40;0.20;;;19.10;99.90;;;;;;5070792;28;20475;-68
2022/06/30 06:24:46;;;;;;;1.50;1.40;;;19.10;99.90;;;;;;5069041;28;20475;-69
2022/06/30 06:27:12;;;;;;;0.40;0.20;;;19.30;99.90;;;;;;5071323;28;20399;-69
2022/06/30 06:29:38;;;;;;;0.50;0.50;;;19.40;99.90;;;;;;5071035;28;20430;-69
2022/06/30 06:32:04;;;;;;;0.40;0.30;;;19.50;99.90;;;;;;5070780;28;20390;-69
2022/06/30 06:34:29;;;;;;;0.40;0.30;;;19.60;99.90;;;;;;5070001;28;20511;-68
2022/06/30 06:36:55;;;;;;;0.40;0.40;;;19.60;99.90;;;;;;5071723;28;20409;-68
2022/06/30 06:39:21;;;;;;;0.40;0.20;;;19.70;99.90;;;;;;5071068;28;20479;-70
2022/06/30 06:41:46;;;;;;;0.40;0.20;;;19.90;99.90;;;;;;5071087;28;21023;-69
2022/06/30 06:44:12;;;;;;;0.40;0.30;;;20.10;99.90;;;;;;5071854;28;20394;-69
2022/06/30 06:46:38;;;;;;;0.40;0.20;;;20.30;99.90;;;;;;5070915;28;20441;-69
2022/06/30 06:49:09;;;;;;;0.40;0.20;;;20.50;99.90;;;;;;5071650;28;20418;-69
2022/06/30 06:51:35;;;;;;;0.40;0.30;;;20.80;99.90;;;;;;5072223;28;20376;-70
2022/06/30 06:54:02;;;;;;;0.40;0.20;;;20.80;99.90;;;;;;5092189;28;20370;-69
2022/06/30 06:56:28;;;;;;;0.40;0.30;;;20.90;99.90;;;;;;5091555;28;20846;-67
2022/06/30 06:58:54;;;;;;;0.40;0.30;;;21.20;99.90;;;;;;5091206;28;20379;-69
2022/06/30 07:01:20;;;;;;;0.47;0.45;;;21.30;99.90;;;;;;5091675;28;20427;-69
2022/06/30 07:03:45;;;;;;;0.40;0.20;;;21.30;99.90;;;;;;5090734;28;20382;-67
2022/06/30 07:06:11;;;;;;;0.40;0.30;;;21.50;99.90;;;;;;5091968;28;20427;-67
2022/06/30 07:08:37;;;;;;;0.50;0.40;;;21.50;99.90;;;;;;5090911;28;20409;-67
2022/06/30 07:11:03;;;;;;;0.40;0.20;;;21.60;99.90;;;;;;5091472;28;20874;-68
2022/06/30 07:13:30;;;;;;;0.40;0.20;;;21.60;99.90;;;;;;5090930;28;20374;-67
2022/06/30 07:15:56;;;;;;;0.40;0.20;;;21.80;99.90;;;;;;5091650;28;20382;-68
2022/06/30 07:18:22;;;;;;;0.40;0.40;;;21.80;99.90;;;;;;5091230;28;20897;-69
2022/06/30 07:20:48;;;;;;;0.40;0.20;;;22.00;99.90;;;;;;5090493;28;20462;-68
2022/06/30 07:23:14;;;;;;;0.40;0.30;;;22.00;99.90;;;;;;5091418;28;20366;-68
2022/06/30 07:25:40;;;;;;;0.40;0.30;;;22.20;99.90;;;;;;5090429;28;20423;-68
2022/06/30 07:28:06;;;;;;;0.40;0.30;;;22.10;99.90;;;;;;5091187;28;20877;-68
2022/06/30 07:30:32;;;;;;;0.50;0.50;;;22.30;99.90;;;;;;5090342;28;20378;-67
2022/06/30 07:32:58;;;;;;;0.80;0.80;;;22.10;99.90;;;;;;5091240;28;20897;-68
2022/06/30 07:35:24;;;;;;;0.60;0.57;;;22.10;99.90;;;;;;5090815;28;20378;-68
2022/06/30 07:37:50;;;;;;;0.40;0.20;;;22.20;99.90;;;;;;5090721;28;20388;-68
2022/06/30 07:40:16;;;;;;;0.80;0.80;;;22.20;99.90;;;;;;5090927;28;20378;-68
2022/06/30 07:42:42;;;;;;;0.40;0.30;;;22.40;99.90;;;;;;5090104;28;20382;-68
2022/06/30 07:45:09;;;;;;;0.60;0.60;;;22.40;99.90;;;;;;5091089;28;20386;-68
2022/06/30 07:47:34;;;;;;;0.40;0.30;;;22.50;99.90;;;;;;5089582;28;20397;-67
2022/06/30 07:50:01;;;;;;;0.40;0.20;;;22.70;99.90;;;;;;5091106;28;20384;-69
2022/06/30 07:52:26;;;;;;;0.40;0.30;;;22.70;99.90;;;;;;5074419;28;20400;-68
2022/06/30 07:54:52;;;;;;;0.40;0.30;;;22.60;99.90;;;;;;5049323;28;20928;-68
2022/06/30 07:57:19;;;;;;;1.00;0.90;;;22.60;99.90;;;;;;5050780;28;20769;-69
2022/06/30 07:59:44;;;;;;;0.40;0.30;;;22.60;99.90;;;;;;5049952;28;20403;-68
2022/06/30 08:02:11;;;;;;;0.40;0.30;;;22.70;99.90;;;;;;5050384;28;20881;-68
2022/06/30 08:04:37;;;;;;;0.40;0.20;;;22.80;99.90;;;;;;5049540;28;20911;-68
2022/06/30 08:07:03;;;;;;;0.40;0.30;;;23.00;99.90;;;;;;5050404;28;20446;-68
2022/06/30 08:09:30;;;;;;;0.50;0.40;;;22.90;99.90;;;;;;5049634;28;20480;-67
2022/06/30 08:11:56;;;;;;;0.40;0.30;;;22.90;99.90;;;;;;5051253;28;20421;-69
2022/06/30 08:14:22;;;;;;;0.40;0.30;;;23.00;99.90;;;;;;5067279;28;20911;-69
2022/06/30 08:16:48;;;;;;;0.40;0.30;;;22.90;99.90;;;;;;5080101;28;21043;-68
2022/06/30 08:19:15;;;;;;;0.40;0.30;;;23.00;99.90;;;;;;5068497;28;20388;-67
2022/06/30 08:21:40;;;;;;;0.40;0.20;;;23.10;99.90;;;;;;5067484;28;20884;-67
2022/06/30 08:24:06;;;;;;;0.40;0.30;;;23.10;99.90;;;;;;5069344;28;20396;-68
2022/06/30 08:26:32;;;;;;;0.40;0.20;;;23.20;99.90;;;;;;5069308;28;20403;-67
2022/06/30 08:28:58;;;;;;;0.40;0.30;;;23.30;99.90;;;;;;5069805;28;20399;-67
2022/06/30 08:31:24;;;;;;;0.40;0.20;;;23.30;99.90;;;;;;5069155;28;20396;-67
2022/06/30 08:33:54;;;;;;;0.60;0.60;;;23.50;99.90;;;;;;5068636;28;20892;-67
2022/06/30 08:36:20;;;;;;;4.60;2.50;;;23.40;99.90;;;;;;5069645;28;20391;-67
2022/06/30 08:38:46;;;;;;;0.90;0.88;;;23.30;99.90;;;;;;5068114;28;20501;-67
2022/06/30 08:43:58;;;;;;;0.40;0.30;;;23.40;99.90;;;;;;5068135;28;20545;-67
2022/06/30 08:46:27;;;;;;;0.40;0.30;;;23.30;99.90;;;;;;5069957;28;20403;-67
2022/06/30 08:48:53;;;;;;;0.40;0.20;;;23.40;99.90;;;;;;5072235;28;20443;-67
2022/06/30 08:51:20;;;;;;;0.70;0.60;;;23.50;99.90;;;;;;5073936;28;20391;-66
2022/06/30 08:53:53;;;;;;;0.40;0.30;;;23.60;99.90;;;;;;5073087;28;20685;-67
2022/06/30 08:56:20;;;;;;;0.40;0.30;;;23.60;99.90;;;;;;5074134;28;20415;-67
2022/06/30 08:58:47;;;;;;;0.40;0.20;;;23.60;99.90;;;;;;5073056;28;20383;-66
2022/06/30 09:01:13;;;;;;;0.60;0.50;;;23.70;99.90;;;;;;5074024;28;20394;-68
2022/06/30 09:03:39;;;;;;;0.40;0.30;;;23.90;99.90;;;;;;5073211;28;20442;-67
2022/06/30 09:06:05;;;;;;;0.40;0.20;;;23.90;99.90;;;;;;5074083;28;20453;-67
2022/06/30 09:08:31;;;;;;;0.40;0.20;;;23.90;99.90;;;;;;5073144;28;20740;-66
2022/06/30 09:10:57;;;;;;;0.40;0.20;;;24.00;99.90;;;;;;5073556;28;20376;-67
2022/06/30 09:13:24;;;;;;;0.40;0.20;;;24.10;99.90;;;;;;5073652;28;20848;-67
2022/06/30 09:15:51;;;;;;;0.40;0.40;;;24.00;99.90;;;;;;5073031;28;20379;-67
2022/06/30 09:18:29;;;;;;;0.40;0.30;;;24.10;99.90;;;;;;5073503;28;20470;-67
2022/06/30 09:20:56;;;;;;;0.40;0.30;;;24.30;99.90;;;;;;5072709;28;20384;-67
2022/06/30 09:23:29;;;;;;;0.40;0.30;;;24.40;99.90;;;;;;5073112;28;20384;-66
2022/06/30 09:26:01;;;;;;;0.40;0.30;;;24.30;99.90;;;;;;5073464;28;20481;-67
2022/06/30 09:28:47;;;;;;;0.40;0.20;;;24.40;99.90;;;;;;5073374;28;20408;-67
2022/06/30 09:31:15;;;;;;;0.60;0.50;;;24.60;99.90;;;;;;5073037;28;20388;-66
2022/06/30 09:33:44;;;;;;;0.40;0.30;;;24.60;99.90;;;;;;5072346;28;20410;-68
2022/06/30 09:36:28;;;;;;;0.40;0.20;;;24.60;99.90;;;;;;5073221;28;20376;-67
2022/06/30 09:39:07;;;;;;;0.47;0.47;;;24.70;99.90;;;;;;5072766;28;20524;-68
2022/06/30 09:41:35;;;;;;;0.40;0.30;;;24.80;99.90;;;;;;5071964;28;20801;-67
2022/06/30 09:44:08;;;;;;;0.40;0.40;;;24.90;99.90;;;;;;5071258;28;20431;-67
2022/06/30 09:46:36;;;;;;;0.40;0.20;;;25.00;99.90;;;;;;5072152;28;20387;-66
2022/06/30 09:49:03;;;;;;;0.40;0.30;;;25.00;99.90;;;;;;5072865;28;20787;-67
2022/06/30 09:51:40;;;;;;;0.40;0.20;;;25.00;99.90;;;;;;5072034;28;20738;-67
2022/06/30 09:54:07;;;;;;;0.50;0.50;;;25.00;99.90;;;;;;5085475;28;20478;-67
2022/06/30 09:56:34;;;;;;;0.40;0.30;;;25.20;99.90;;;;;;5072035;28;20413;-66
2022/06/30 09:58:59;;;;;;;0.40;0.30;;;25.40;99.90;;;;;;5072808;28;20410;-66
2022/06/30 10:01:25;;;;;;;0.40;0.22;;;25.40;99.90;;;;;;5072268;28;20855;-68
2022/06/30 10:03:59;;;;;;;0.40;0.30;;;25.40;99.90;;;;;;5071865;28;20384;-68
2022/06/30 10:06:25;;;;;;;0.90;0.60;;;25.40;99.90;;;;;;5072491;28;20472;-67
2022/06/30 10:08:53;;;;;;;0.50;0.50;;;25.50;99.90;;;;;;5070934;28;21068;-67
2022/06/30 10:11:19;;;;;;;0.40;0.30;;;25.50;99.90;;;;;;5071992;28;20399;-68
2022/06/30 10:13:46;;;;;;;0.40;0.20;;;25.80;99.90;;;;;;5071015;28;20727;-67
2022/06/30 10:16:13;;;;;;;0.43;0.32;;;25.80;99.90;;;;;;5051921;28;20914;-67
2022/06/30 10:18:39;;;;;;;0.40;0.30;;;26.00;99.90;;;;;;5071109;28;20433;-67
2022/06/30 10:21:08;;;;;;;0.40;0.20;;;26.20;98.30;;;;;;5071913;28;20438;-67
2022/06/30 10:23:34;;;;;;;0.40;0.20;;;26.20;98.40;;;;;;5070789;28;20384;-67
2022/06/30 10:26:00;;;;;;;0.40;0.20;;;26.30;98.20;;;;;;5070611;28;20936;-68
2022/06/30 10:28:29;;;;;;;0.40;0.20;;;26.40;97.70;;;;;;5072144;28;20403;-70
2022/06/30 10:31:35;;;;;;;0.57;0.47;;;26.30;97.10;;;;;;5070733;28;20400;-68
2022/06/30 10:34:19;;;;;;;0.70;0.60;;;26.40;96.20;;;;;;5070172;28;20948;-68
2022/06/30 10:36:54;;;;;;;0.40;0.22;;;26.70;93.40;;;;;;5070038;28;20441;-68
2022/06/30 10:39:50;;;;;;;0.40;0.20;;;26.70;94.10;;;;;;5071313;28;20384;-68
2022/06/30 10:42:55;;;;;;;0.40;0.30;;;26.80;94.00;;;;;;5050566;28;20966;-69
2022/06/30 10:45:27;;;;;;;0.40;0.30;;;26.80;94.70;;;;;;5052207;28;20409;-68
2022/06/30 10:48:04;;;;;;;0.40;0.20;;;26.80;94.70;;;;;;5051068;28;20402;-68
2022/06/30 10:50:42;;;;;;;0.40;0.30;;;26.70;93.50;;;;;;5051601;28;20388;-68
2022/06/30 10:53:10;;;;;;;0.40;0.20;;;26.70;96.40;;;;;;5079902;28;20469;-68
2022/06/30 10:55:52;;;;;;;0.40;0.30;;;26.90;91.90;;;;;;5090898;28;20461;-69
2022/06/30 10:58:22;;;;;;;0.40;0.30;;;27.30;92.90;;;;;;5092077;28;20398;-69
2022/06/30 11:00:48;;;;;;;0.40;0.40;;;27.30;90.10;;;;;;5090874;28;21027;-68
2022/06/30 11:03:34;;;;;;;0.40;0.30;;;27.30;88.60;;;;;;5091941;28;20398;-69
2022/06/30 11:06:09;;;;;;;0.40;0.30;;;27.30;91.20;;;;;;5091984;28;20390;-68
2022/06/30 11:08:52;;;;;;;0.40;0.20;;;27.60;88.90;;;;;;5090649;28;20410;-68
2022/06/30 11:11:23;;;;;;;0.40;0.20;;;27.50;88.90;;;;;;5091134;28;20386;-68
2022/06/30 11:14:11;;;;;;;0.40;0.30;;;27.60;87.10;;;;;;5091015;28;20375;-67
2022/06/30 11:16:39;;;;;;;0.50;0.50;;;27.70;87.20;;;;;;5090121;28;20394;-68
2022/06/30 11:19:14;;;;;;;0.40;0.20;;;27.70;88.00;;;;;;5069000;28;20449;-72
2022/06/30 11:21:44;;;;;;;0.40;0.20;;;27.90;87.00;;;;;;5069429;28;20395;-68
2022/06/30 11:24:11;;;;;;;0.40;0.20;;;28.00;89.00;;;;;;5069925;28;20419;-69
2022/06/30 11:29:26;;;;;;;0.40;0.20;;;28.30;87.30;;;;;;5064515;28;20390;-68
2022/06/30 11:31:58;;;;;;;0.40;0.30;;;28.80;85.40;;;;;;5069087;28;20896;-68
2022/06/30 11:34:26;;;;;;;0.40;0.20;;;29.00;89.10;;;;;;5070893;28;20399;-67
2022/06/30 11:36:52;;;;;;;0.40;0.23;;;29.30;86.60;;;;;;5070270;28;20482;-70
2022/06/30 11:39:25;;;;;;;0.40;0.20;;;29.40;79.90;;;;;;5071009;28;20394;-68
2022/06/30 11:41:58;;;;;;;0.40;0.40;;;29.40;83.10;;;;;;5070335;28;20383;-67
2022/06/30 11:44:24;;;;;;;0.40;0.20;;;29.60;80.10;;;;;;5070654;28;20387;-67
2022/06/30 11:46:54;;;;;;;0.40;0.30;;;30.50;81.40;;;;;;5069783;28;21017;-67
2022/06/30 11:49:22;;;;;;;0.50;0.40;;;31.50;73.40;;;;;;5071189;28;20391;-67
2022/06/30 11:51:48;;;;;;;0.40;0.20;;;31.90;72.20;;;;;;5071980;28;20390;-68
2022/06/30 11:54:16;;;;;;;0.40;0.20;;;30.70;71.60;;;;;;5090691;28;20746;-68
2022/06/30 11:56:44;;;;;;;0.40;0.20;;;32.10;68.00;;;;;;5082327;28;20415;-65
2022/06/30 11:59:10;;;;;;;0.40;0.20;;;32.80;64.10;;;;;;5071150;28;20400;-66
2022/06/30 12:01:36;;;;;;;0.40;0.20;;;32.30;64.20;;;;;;5068687;28;20449;-66
2022/06/30 12:04:19;;;;;;;0.40;0.20;;;33.70;60.40;;;;;;5070706;28;20388;-65
2022/06/30 12:06:45;;;;;;;0.40;0.20;;;32.60;61.80;;;;;;5069078;28;20388;-66
2022/06/30 12:09:11;;;;;;;0.40;0.20;;;32.90;61.50;;;;;;5070383;28;20407;-66
2022/06/30 12:11:37;;;;;;;0.40;0.20;;;32.60;65.60;;;;;;5069447;28;20400;-66
2022/06/30 12:14:05;;;;;;;0.40;0.20;;;33.60;60.40;;;;;;5070407;28;20376;-66
2022/06/30 12:16:31;;;;;;;0.40;0.20;;;33.50;59.70;;;;;;5067713;28;20485;-67
2022/06/30 12:18:57;;;;;;;0.40;0.20;;;33.40;65.50;;;;;;5069109;28;20399;-67
2022/06/30 12:21:23;;;;;;;0.40;0.20;;;32.60;60.90;;;;;;5069750;28;20714;-67
2022/06/30 12:23:49;;;;;;;0.40;0.20;;;33.50;65.40;;;;;;5068150;28;20453;-66
2022/06/30 12:26:15;;;;;;;0.40;0.20;;;33.70;59.50;;;;;;5069926;28;20392;-68
2022/06/30 12:28:55;;;;;;;0.40;0.20;;;34.30;60.30;;;;;;5069591;28;20414;-67
2022/06/30 12:31:25;;;;;;;0.47;0.43;;;34.80;57.80;;;;;;5070262;28;20388;-69
2022/06/30 12:33:52;;;;;;;0.40;0.20;;;33.50;59.90;;;;;;5068846;28;20427;-68
2022/06/30 12:36:19;;;;;;;0.40;0.20;;;33.50;59.50;;;;;;5070485;28;20467;-69
2022/06/30 12:38:44;;;;;;;0.40;0.20;;;33.60;57.80;;;;;;5069229;28;20432;-68
2022/06/30 12:41:14;;;;;;;0.40;0.20;;;32.20;58.70;;;;;;5070522;28;20771;-67
2022/06/30 12:43:48;;;;;;;0.40;0.20;;;32.00;57.80;;;;;;5069452;28;20454;-67
2022/06/30 12:46:15;;;;;;;0.40;0.20;;;32.80;57.00;;;;;;5069887;28;20929;-67
2022/06/30 12:48:52;;;;;;;0.40;0.20;;;34.10;59.90;;;;;;5069106;28;20410;-67
2022/06/30 12:51:35;;;;;;;0.40;0.20;;;34.30;56.30;;;;;;5070394;28;20495;-67
2022/06/30 12:54:01;;;;;;;0.40;0.20;;;34.20;56.10;;;;;;5069498;28;20391;-67
2022/06/30 12:56:28;;;;;;;0.40;0.20;;;34.30;58.00;;;;;;5070104;28;20372;-68
2022/06/30 12:59:11;;;;;;;0.40;0.20;;;33.70;57.60;;;;;;5069534;28;20433;-67
2022/06/30 13:01:46;;;;;;;0.40;0.20;;;33.60;56.80;;;;;;5068994;28;20465;-67
2022/06/30 13:04:23;;;;;;;0.40;0.20;;;33.50;60.60;;;;;;5069940;28;20384;-68